Time,TemperatureF,DewpointF,PressureIn,WindDirection,WindDirectionDegrees,WindSpeedMPH,WindSpeedGustMPH,Humidity,HourlyPrecipIn,Conditions,Clouds,dailyrainin,SolarRadiationWatts/m^2,SoftwareType,DateUTC
2013-05-03 00:00:00,57.9,36.7,30.32,SSW,212,0.0,9.0,45,0.00,,,0.00,0.00,VWS V14.01,2013-05-03 04:00:00,
2013-05-03 00:01:00,58.0,36.8,30.32,SSW,212,0.0,0.0,45,0.00,,,0.00,,VWS V14.01,2013-05-03 04:01:00,
2013-05-03 00:06:00,58.5,36.1,30.32,SE,142,5.0,6.0,43,0.00,,,0.00,,VWS V14.01,2013-05-03 04:06:00,
2013-05-03 00:11:00,59.1,36.0,30.32,West,274,0.0,9.0,42,0.00,,,0.00,,VWS V14.01,2013-05-03 04:11:00,
2013-05-03 00:15:00,59.4,36.3,30.33,SW,219,0.0,9.0,42,0.00,,,0.00,0.00,VWS V14.01,2013-05-03 04:15:00,
2013-05-03 00:16:00,59.4,35.7,30.33,West,262,1.0,7.0,41,0.00,,,0.00,,VWS V14.01,2013-05-03 04:16:00,
2013-05-03 00:21:00,59.7,36.6,30.33,NE,43,0.0,7.0,42,0.00,,,0.00,,VWS V14.01,2013-05-03 04:21:00,
2013-05-03 00:26:00,59.7,37.2,30.33,NE,43,1.0,7.0,43,0.00,,,0.00,,VWS V14.01,2013-05-03 04:26:00,
2013-05-03 00:30:00,59.7,36.6,30.34,NE,39,4.0,8.0,42,0.00,,,0.00,0.00,VWS V14.01,2013-05-03 04:30:00,
2013-05-03 00:31:00,59.7,36.6,30.34,NNE,30,0.0,7.0,42,0.00,,,0.00,,VWS V14.01,2013-05-03 04:31:00,
2013-05-03 00:36:00,59.2,38.5,30.34,NE,38,5.0,10.0,46,0.00,,,0.00,,VWS V14.01,2013-05-03 04:36:00,
2013-05-03 00:41:00,58.9,37.6,30.34,ENE,69,10.0,13.0,45,0.00,,,0.00,,VWS V14.01,2013-05-03 04:41:00,
2013-05-03 00:45:00,58.6,38.5,30.35,NE,52,9.0,13.0,47,0.00,,,0.00,0.00,VWS V14.01,2013-05-03 04:45:00,
2013-05-03 00:46:00,58.6,37.9,30.35,ENE,57,5.0,12.0,46,0.00,,,0.00,,VWS V14.01,2013-05-03 04:46:00,
2013-05-03 00:51:00,58.3,37.6,30.35,West,271,0.0,12.0,46,0.00,,,0.00,,VWS V14.01,2013-05-03 04:51:00,
2013-05-03 00:56:00,58.2,37.5,30.35,ENE,71,5.0,12.0,46,0.00,,,0.00,,VWS V14.01,2013-05-03 04:56:00,
2013-05-03 01:00:00,58.2,37.5,30.35,ENE,76,1.0,12.0,46,0.00,,,0.00,0.00,VWS V14.01,2013-05-03 05:00:00,
2013-05-03 01:01:00,58.2,37.5,30.35,ENE,77,5.0,9.0,46,0.00,,,0.00,,VWS V14.01,2013-05-03 05:01:00,
2013-05-03 01:06:00,58.2,37.5,30.35,ENE,78,8.0,11.0,46,0.00,,,0.00,,VWS V14.01,2013-05-03 05:06:00,
2013-05-03 01:11:00,58.0,37.4,30.35,East,81,4.0,12.0,46,0.00,,,0.00,,VWS V14.01,2013-05-03 05:11:00,
2013-05-03 01:15:00,58.0,37.4,30.35,ENE,70,6.0,12.0,46,0.00,,,0.00,0.00,VWS V14.01,2013-05-03 05:15:00,
2013-05-03 01:16:00,58.0,37.9,30.35,ENE,71,5.0,10.0,47,0.00,,,0.00,,VWS V14.01,2013-05-03 05:16:00,
2013-05-03 01:20:00,57.9,37.8,30.35,ENE,71,7.0,11.0,47,0.00,,,0.00,,VWS V14.01,2013-05-03 05:20:00,
2013-05-03 01:25:00,57.7,38.2,30.35,NE,48,7.0,11.0,48,0.00,,,0.00,,VWS V14.01,2013-05-03 05:25:00,
2013-05-03 01:30:00,57.5,38.0,30.35,ENE,63,6.0,10.0,48,0.00,,,0.00,,VWS V14.01,2013-05-03 05:30:00,
2013-05-03 01:35:00,57.2,37.7,30.35,NE,55,5.0,10.0,48,0.00,,,0.00,,VWS V14.01,2013-05-03 05:35:00,
2013-05-03 01:40:00,57.1,38.1,30.35,ENE,74,8.0,10.0,49,0.00,,,0.00,,VWS V14.01,2013-05-03 05:40:00,
2013-05-03 01:45:00,56.9,38.0,30.35,ENE,70,6.0,8.0,49,0.00,,,0.00,,VWS V14.01,2013-05-03 05:45:00,
2013-05-03 01:50:00,56.8,38.4,30.35,NE,40,6.0,8.0,50,0.00,,,0.00,,VWS V14.01,2013-05-03 05:50:00,
2013-05-03 01:55:00,56.6,38.2,30.35,NE,49,0.0,8.0,50,0.00,,,0.00,,VWS V14.01,2013-05-03 05:55:00,
2013-05-03 02:00:00,56.4,39.5,30.36,East,101,5.0,5.0,53,0.00,,,0.00,,VWS V14.01,2013-05-03 06:00:00,
2013-05-03 02:05:00,56.1,38.7,30.36,NE,49,0.0,9.0,52,0.00,,,0.00,,VWS V14.01,2013-05-03 06:05:00,
2013-05-03 02:10:00,55.9,38.5,30.36,NE,54,2.0,9.0,52,0.00,,,0.00,,VWS V14.01,2013-05-03 06:10:00,
2013-05-03 02:15:00,56.1,39.2,30.36,ENE,75,0.0,7.0,53,0.00,,,0.00,,VWS V14.01,2013-05-03 06:15:00,
2013-05-03 02:20:00,55.9,39.5,30.36,NE,49,4.0,7.0,54,0.00,,,0.00,,VWS V14.01,2013-05-03 06:20:00,
2013-05-03 02:25:00,56.1,38.7,30.36,NE,55,4.0,13.0,52,0.00,,,0.00,,VWS V14.01,2013-05-03 06:25:00,
2013-05-03 02:30:00,56.2,38.8,30.36,ENE,60,2.0,8.0,52,0.00,,,0.00,,VWS V14.01,2013-05-03 06:30:00,
2013-05-03 02:35:00,56.2,38.8,30.36,East,99,0.0,10.0,52,0.00,,,0.00,,VWS V14.01,2013-05-03 06:35:00,
2013-05-03 02:40:00,56.2,38.8,30.36,ENE,57,5.0,10.0,52,0.00,,,0.00,,VWS V14.01,2013-05-03 06:40:00,
2013-05-03 02:45:00,56.2,39.3,30.37,East,94,0.0,7.0,53,0.00,,,0.00,,VWS V14.01,2013-05-03 06:45:00,
2013-05-03 02:50:00,56.1,39.2,30.37,ENE,57,5.0,13.0,53,0.00,,,0.00,,VWS V14.01,2013-05-03 06:50:00,
2013-05-03 02:55:00,55.8,39.4,30.37,East,92,4.0,13.0,54,0.00,,,0.00,,VWS V14.01,2013-05-03 06:55:00,
2013-05-03 03:00:00,55.5,39.1,30.37,ENE,67,4.0,8.0,54,0.00,,,0.00,,VWS V14.01,2013-05-03 07:00:00,
2013-05-03 03:05:00,55.3,38.5,30.37,ENE,74,0.0,10.0,53,0.00,,,0.00,,VWS V14.01,2013-05-03 07:05:00,
2013-05-03 03:10:00,55.0,37.7,30.37,ENE,59,6.0,10.0,52,0.00,,,0.00,,VWS V14.01,2013-05-03 07:10:00,
2013-05-03 03:15:00,54.9,37.6,30.38,ENE,68,5.0,10.0,52,0.00,,,0.00,,VWS V14.01,2013-05-03 07:15:00,
2013-05-03 03:20:00,54.7,37.4,30.38,SE,141,0.0,11.0,52,0.00,,,0.00,,VWS V14.01,2013-05-03 07:20:00,
2013-05-03 03:25:00,54.6,37.3,30.38,ENE,74,1.0,11.0,52,0.00,,,0.00,,VWS V14.01,2013-05-03 07:25:00,
2013-05-03 03:30:00,54.6,37.8,30.38,ENE,70,4.0,9.0,53,0.00,,,0.00,,VWS V14.01,2013-05-03 07:30:00,
2013-05-03 03:35:00,54.4,37.6,30.38,East,86,8.0,10.0,53,0.00,,,0.00,,VWS V14.01,2013-05-03 07:35:00,
2013-05-03 03:40:00,54.3,38.0,30.38,NE,47,2.0,10.0,54,0.00,,,0.00,,VWS V14.01,2013-05-03 07:40:00,
2013-05-03 03:45:00,54.3,38.5,30.39,NE,37,4.0,5.0,55,0.00,,,0.00,,VWS V14.01,2013-05-03 07:45:00,
2013-05-03 03:50:00,54.1,38.8,30.39,SSE,152,7.0,12.0,56,0.00,,,0.00,,VWS V14.01,2013-05-03 07:50:00,
2013-05-03 03:55:00,54.0,39.1,30.39,WNW,303,0.0,12.0,57,0.00,,,0.00,,VWS V14.01,2013-05-03 07:55:00,
2013-05-03 04:00:00,53.8,38.9,30.39,ENE,67,10.0,10.0,57,0.00,,,0.00,,VWS V14.01,2013-05-03 08:00:00,
2013-05-03 04:05:00,53.7,39.3,30.39,East,101,5.0,13.0,58,0.00,,,0.00,,VWS V14.01,2013-05-03 08:05:00,
2013-05-03 04:10:00,53.5,39.5,30.39,ENE,76,1.0,13.0,59,0.00,,,0.00,,VWS V14.01,2013-05-03 08:10:00,
2013-05-03 04:15:00,53.4,39.9,30.40,NE,45,12.0,12.0,60,0.00,,,0.00,,VWS V14.01,2013-05-03 08:15:00,
2013-05-03 04:20:00,53.1,39.6,30.40,NE,55,6.0,12.0,60,0.00,,,0.00,,VWS V14.01,2013-05-03 08:20:00,
2013-05-03 04:25:00,53.0,39.1,30.40,NNE,33,8.0,12.0,59,0.00,,,0.00,,VWS V14.01,2013-05-03 08:25:00,
2013-05-03 04:30:00,53.0,39.5,30.40,East,82,8.0,10.0,60,0.00,,,0.00,,VWS V14.01,2013-05-03 08:30:00,
2013-05-03 04:35:00,52.8,39.3,30.40,NNE,32,7.0,10.0,60,0.00,,,0.00,,VWS V14.01,2013-05-03 08:35:00,
2013-05-03 04:40:00,52.7,38.8,30.40,NE,55,5.0,10.0,59,0.00,,,0.00,,VWS V14.01,2013-05-03 08:40:00,
2013-05-03 04:45:00,52.7,39.2,30.40,ENE,73,4.0,6.0,60,0.00,,,0.00,,VWS V14.01,2013-05-03 08:45:00,
2013-05-03 04:50:00,52.5,38.6,30.40,NNE,32,3.0,8.0,59,0.00,,,0.00,,VWS V14.01,2013-05-03 08:50:00,
2013-05-03 04:55:00,52.5,39.0,30.40,NNE,28,4.0,8.0,60,0.00,,,0.00,,VWS V14.01,2013-05-03 08:55:00,
2013-05-03 05:00:00,52.2,37.9,30.40,East,97,9.0,9.0,58,0.00,,,0.00,,VWS V14.01,2013-05-03 09:00:00,
2013-05-03 05:05:00,52.2,37.4,30.40,ENE,78,6.0,9.0,57,0.00,,,0.00,,VWS V14.01,2013-05-03 09:05:00,
2013-05-03 05:10:00,52.1,36.4,30.40,NE,34,4.0,13.0,55,0.00,,,0.00,,VWS V14.01,2013-05-03 09:10:00,
2013-05-03 05:15:00,51.9,35.8,30.41,ESE,111,4.0,8.0,54,0.00,,,0.00,,VWS V14.01,2013-05-03 09:15:00,
2013-05-03 05:20:00,51.8,35.2,30.41,ENE,63,4.0,9.0,53,0.00,,,0.00,,VWS V14.01,2013-05-03 09:20:00,
2013-05-03 05:25:00,51.6,35.0,30.41,SE,124,5.0,9.0,53,0.00,,,0.00,,VWS V14.01,2013-05-03 09:25:00,
2013-05-03 05:30:00,51.5,35.0,30.41,NE,42,4.0,8.0,53,0.00,,,0.00,,VWS V14.01,2013-05-03 09:30:00,
2013-05-03 05:35:00,51.3,33.8,30.41,East,92,0.0,8.0,51,0.00,,,0.00,,VWS V14.01,2013-05-03 09:35:00,
2013-05-03 05:40:00,51.3,34.3,30.41,NE,47,0.0,8.0,52,0.00,,,0.00,,VWS V14.01,2013-05-03 09:40:00,
2013-05-03 05:45:00,51.2,33.2,30.41,NE,46,0.0,5.0,50,0.00,,,0.00,,VWS V14.01,2013-05-03 09:45:00,
2013-05-03 05:50:00,51.2,32.7,30.41,NE,41,4.0,11.0,49,0.00,,,0.00,,VWS V14.01,2013-05-03 09:50:00,
2013-05-03 05:55:00,51.2,33.2,30.41,NE,46,4.0,11.0,50,0.00,,,0.00,,VWS V14.01,2013-05-03 09:55:00,
2013-05-03 06:00:00,51.2,32.2,30.41,NE,46,1.0,6.0,48,0.00,,,0.00,,VWS V14.01,2013-05-03 10:00:00,
2013-05-03 06:05:00,51.2,32.7,30.41,NNE,26,0.0,6.0,49,0.00,,,0.00,,VWS V14.01,2013-05-03 10:05:00,
2013-05-03 06:10:00,51.2,32.2,30.41,NE,44,4.0,8.0,48,0.00,,,0.00,,VWS V14.01,2013-05-03 10:10:00,
2013-05-03 06:15:00,51.0,32.0,30.42,ENE,57,5.0,5.0,48,0.00,,,0.00,,VWS V14.01,2013-05-03 10:15:00,
2013-05-03 06:20:00,51.2,32.7,30.42,East,96,7.0,9.0,49,0.00,,,0.00,,VWS V14.01,2013-05-03 10:20:00,
2013-05-03 06:25:00,51.2,32.2,30.42,NNE,30,5.0,9.0,48,0.00,,,0.00,,VWS V14.01,2013-05-03 10:25:00,
2013-05-03 06:30:00,51.3,32.8,30.42,NNE,30,1.0,5.0,49,0.00,,,0.00,,VWS V14.01,2013-05-03 10:30:00,
2013-05-03 06:35:00,51.3,32.8,30.42,NE,53,2.0,5.0,49,0.00,,,0.00,,VWS V14.01,2013-05-03 10:35:00,
2013-05-03 06:40:00,51.3,32.3,30.42,ENE,76,0.0,8.0,48,0.00,,,0.00,,VWS V14.01,2013-05-03 10:40:00,
2013-05-03 06:45:00,51.3,32.3,30.43,NE,53,7.0,7.0,48,0.00,,,0.00,,VWS V14.01,2013-05-03 10:45:00,
2013-05-03 06:50:00,51.2,32.2,30.43,NNE,17,6.0,11.0,48,0.00,,,0.00,,VWS V14.01,2013-05-03 10:50:00,
2013-05-03 06:55:00,51.2,32.2,30.43,ENE,65,0.0,11.0,48,0.00,,,0.00,,VWS V14.01,2013-05-03 10:55:00,
2013-05-03 07:00:00,51.3,32.3,30.43,East,98,0.0,0.0,48,0.00,,,0.00,,VWS V14.01,2013-05-03 11:00:00,
2013-05-03 07:05:00,51.3,32.3,30.43,ENE,63,0.0,7.0,48,0.00,,,0.00,,VWS V14.01,2013-05-03 11:05:00,
2013-05-03 07:10:00,51.5,33.0,30.43,NE,53,0.0,7.0,49,0.00,,,0.00,,VWS V14.01,2013-05-03 11:10:00,
2013-05-03 07:15:00,51.6,33.1,30.43,ENE,65,0.0,0.0,49,0.00,,,0.00,,VWS V14.01,2013-05-03 11:15:00,
2013-05-03 07:20:00,51.5,32.5,30.43,ENE,65,8.0,9.0,48,0.00,,,0.00,,VWS V14.01,2013-05-03 11:20:00,
2013-05-03 07:25:00,51.3,32.3,30.43,East,82,7.0,9.0,48,0.00,,,0.00,,VWS V14.01,2013-05-03 11:25:00,
2013-05-03 07:30:00,51.0,32.5,30.44,ENE,59,5.0,5.0,49,0.00,,,0.00,,VWS V14.01,2013-05-03 11:30:00,
2013-05-03 07:35:00,50.7,32.8,30.44,ENE,76,4.0,9.0,50,0.00,,,0.00,,VWS V14.01,2013-05-03 11:35:00,
2013-05-03 07:40:00,50.7,32.8,30.44,ENE,74,4.0,9.0,50,0.00,,,0.00,,VWS V14.01,2013-05-03 11:40:00,
2013-05-03 07:45:00,51.5,33.0,30.44,NE,49,5.0,5.0,49,0.00,,,0.00,,VWS V14.01,2013-05-03 11:45:00,
2013-05-03 07:49:00,51.8,32.8,30.44,ENE,58,6.0,9.0,48,0.00,,,0.00,,VWS V14.01,2013-05-03 11:49:00,
2013-05-03 07:54:00,52.2,33.6,30.44,NNE,26,5.0,9.0,49,0.00,,,0.00,,VWS V14.01,2013-05-03 11:54:00,
2013-05-03 07:59:00,52.7,33.0,30.43,ENE,63,12.0,13.0,47,0.00,,,0.00,,VWS V14.01,2013-05-03 11:59:00,
2013-05-03 08:00:00,52.7,33.6,30.43,NNE,18,13.0,13.0,48,0.00,,,0.00,325.00,VWS V14.01,2013-05-03 12:00:00,
2013-05-03 08:04:00,52.8,32.6,30.43,ENE,74,10.0,13.0,46,0.00,,,0.00,,VWS V14.01,2013-05-03 12:04:00,
2013-05-03 08:09:00,53.1,32.3,30.43,NNE,27,5.0,14.0,45,0.00,,,0.00,,VWS V14.01,2013-05-03 12:09:00,
2013-05-03 08:14:00,53.2,34.0,30.43,NE,37,8.0,11.0,48,0.00,,,0.00,,VWS V14.01,2013-05-03 12:14:00,
2013-05-03 08:15:00,53.2,34.0,30.43,NE,39,11.0,14.0,48,0.00,,,0.00,374.00,VWS V14.01,2013-05-03 12:15:00,
2013-05-03 08:19:00,53.4,33.7,30.43,NE,46,5.0,11.0,47,0.00,,,0.00,,VWS V14.01,2013-05-03 12:19:00,
2013-05-03 08:24:00,53.5,32.7,30.43,NE,51,9.0,14.0,45,0.00,,,0.00,,VWS V14.01,2013-05-03 12:24:00,
2013-05-03 08:29:00,53.4,33.7,30.44,East,86,4.0,8.0,47,0.00,,,0.00,,VWS V14.01,2013-05-03 12:29:00,
2013-05-03 08:30:00,53.2,33.5,30.44,East,95,8.0,14.0,47,0.00,,,0.00,411.00,VWS V14.01,2013-05-03 12:30:00,
2013-05-03 08:34:00,53.5,33.2,30.44,NE,37,10.0,15.0,46,0.00,,,0.00,,VWS V14.01,2013-05-03 12:34:00,
2013-05-03 08:39:00,53.8,33.5,30.44,NNE,24,8.0,15.0,46,0.00,,,0.00,,VWS V14.01,2013-05-03 12:39:00,
2013-05-03 08:44:00,54.1,33.8,30.44,ENE,73,5.0,5.0,46,0.00,,,0.00,,VWS V14.01,2013-05-03 12:44:00,
2013-05-03 08:45:00,54.1,33.8,30.44,NE,46,4.0,15.0,46,0.00,,,0.00,462.00,VWS V14.01,2013-05-03 12:45:00,
2013-05-03 08:49:00,54.1,33.2,30.44,ENE,64,6.0,14.0,45,0.00,,,0.00,,VWS V14.01,2013-05-03 12:49:00,
2013-05-03 08:54:00,54.0,33.2,30.44,NNE,13,8.0,14.0,45,0.00,,,0.00,,VWS V14.01,2013-05-03 12:54:00,
2013-05-03 08:59:00,54.7,34.9,30.44,ESE,122,4.0,6.0,47,0.00,,,0.00,,VWS V14.01,2013-05-03 12:59:00,
2013-05-03 09:00:00,54.7,34.9,30.44,East,79,6.0,14.0,47,0.00,,,0.00,508.00,VWS V14.01,2013-05-03 13:00:00,
2013-05-03 09:04:00,55.6,35.7,30.44,NE,44,0.0,10.0,47,0.00,,,0.00,,VWS V14.01,2013-05-03 13:04:00,
2013-05-03 09:09:00,56.1,34.5,30.44,NE,50,0.0,10.0,44,0.00,,,0.00,,VWS V14.01,2013-05-03 13:09:00,
2013-05-03 09:14:00,56.6,34.4,30.43,NE,51,5.0,6.0,43,0.00,,,0.00,,VWS V14.01,2013-05-03 13:14:00,
2013-05-03 09:15:00,56.6,34.4,30.43,NE,51,6.0,10.0,43,0.00,,,0.00,559.00,VWS V14.01,2013-05-03 13:15:00,
2013-05-03 09:19:00,56.4,34.8,30.43,NNE,29,5.0,8.0,44,0.00,,,0.00,,VWS V14.01,2013-05-03 13:19:00,
2013-05-03 09:24:00,57.1,34.2,30.43,NE,34,7.0,8.0,42,0.00,,,0.00,,VWS V14.01,2013-05-03 13:24:00,
2013-05-03 09:29:00,56.5,34.3,30.43,ENE,69,0.0,0.0,43,0.00,,,0.00,,VWS V14.01,2013-05-03 13:29:00,
2013-05-03 09:30:00,56.5,34.3,30.43,ENE,69,0.0,12.0,43,0.00,,,0.00,606.00,VWS V14.01,2013-05-03 13:30:00,
2013-05-03 09:34:00,56.9,34.1,30.43,NE,43,10.0,10.0,42,0.00,,,0.00,,VWS V14.01,2013-05-03 13:34:00,
2013-05-03 09:39:00,56.6,33.2,30.43,NE,55,4.0,13.0,41,0.00,,,0.00,,VWS V14.01,2013-05-03 13:39:00,
2013-05-03 09:44:00,57.1,34.8,30.42,NE,46,8.0,8.0,43,0.00,,,0.00,,VWS V14.01,2013-05-03 13:44:00,
2013-05-03 09:45:00,57.1,34.8,30.42,NE,45,8.0,13.0,43,0.00,,,0.00,647.00,VWS V14.01,2013-05-03 13:45:00,
2013-05-03 09:49:00,57.2,33.7,30.42,East,81,6.0,11.0,41,0.00,,,0.00,,VWS V14.01,2013-05-03 13:49:00,
2013-05-03 09:54:00,57.9,33.8,30.42,ENE,59,5.0,11.0,40,0.00,,,0.00,,VWS V14.01,2013-05-03 13:54:00,
2013-05-03 09:59:00,57.2,32.5,30.42,NE,47,11.0,11.0,39,0.00,,,0.00,,VWS V14.01,2013-05-03 13:59:00,
2013-05-03 10:00:00,57.2,32.5,30.42,NNE,28,10.0,14.0,39,0.00,,,0.00,689.00,VWS V14.01,2013-05-03 14:00:00,
2013-05-03 10:04:00,57.4,32.7,30.42,ESE,121,1.0,11.0,39,0.00,,,0.00,,VWS V14.01,2013-05-03 14:04:00,
2013-05-03 10:09:00,58.8,33.9,30.42,NE,43,1.0,11.0,39,0.00,,,0.00,,VWS V14.01,2013-05-03 14:09:00,
2013-05-03 10:14:00,58.0,31.9,30.42,East,85,6.0,12.0,37,0.00,,,0.00,,VWS V14.01,2013-05-03 14:14:00,
2013-05-03 10:15:00,58.0,31.9,30.42,East,85,6.0,12.0,37,0.00,,,0.00,726.00,VWS V14.01,2013-05-03 14:15:00,
2013-05-03 10:19:00,58.3,32.2,30.42,SE,130,0.0,12.0,37,0.00,,,0.00,,VWS V14.01,2013-05-03 14:19:00,
2013-05-03 10:24:00,58.8,32.6,30.42,East,100,0.0,15.0,37,0.00,,,0.00,,VWS V14.01,2013-05-03 14:24:00,
2013-05-03 10:29:00,58.6,30.3,30.42,ENE,63,7.0,19.0,34,0.00,,,0.00,,VWS V14.01,2013-05-03 14:29:00,
2013-05-03 10:30:00,58.6,30.3,30.42,ENE,63,7.0,19.0,34,0.00,,,0.00,761.00,VWS V14.01,2013-05-03 14:30:00,
2013-05-03 10:34:00,58.2,31.4,30.42,East,91,8.0,15.0,36,0.00,,,0.00,,VWS V14.01,2013-05-03 14:34:00,
2013-05-03 10:39:00,59.1,32.9,30.42,ENE,58,2.0,15.0,37,0.00,,,0.00,,VWS V14.01,2013-05-03 14:39:00,
2013-05-03 10:44:00,60.0,30.8,30.42,South,187,4.0,15.0,33,0.00,,,0.00,,VWS V14.01,2013-05-03 14:44:00,
2013-05-03 10:45:00,60.0,30.1,30.42,SSW,195,8.0,15.0,32,0.00,,,0.00,800.00,VWS V14.01,2013-05-03 14:45:00,
2013-05-03 10:49:00,60.0,28.5,30.42,South,183,4.0,13.0,30,0.00,,,0.00,,VWS V14.01,2013-05-03 14:49:00,
2013-05-03 10:54:00,60.3,29.6,30.42,ENE,63,6.0,13.0,31,0.00,,,0.00,,VWS V14.01,2013-05-03 14:54:00,
2013-05-03 10:59:00,60.3,29.6,30.42,ENE,69,4.0,13.0,31,0.00,,,0.00,,VWS V14.01,2013-05-03 14:59:00,
2013-05-03 11:00:00,60.3,29.6,30.42,ESE,103,7.0,13.0,31,0.00,,,0.00,831.00,VWS V14.01,2013-05-03 15:00:00,
2013-05-03 11:04:00,59.5,31.1,30.42,NE,46,6.0,11.0,34,0.00,,,0.00,,VWS V14.01,2013-05-03 15:04:00,
2013-05-03 11:09:00,59.5,28.9,30.42,NE,38,7.0,15.0,31,0.00,,,0.00,,VWS V14.01,2013-05-03 15:09:00,
2013-05-03 11:14:00,60.1,32.4,30.41,NNE,30,13.0,15.0,35,0.00,,,0.00,,VWS V14.01,2013-05-03 15:14:00,
2013-05-03 11:15:00,60.1,32.4,30.41,NE,39,14.0,15.0,35,0.00,,,0.00,867.00,VWS V14.01,2013-05-03 15:15:00,
2013-05-03 11:19:00,60.1,29.4,30.41,ENE,65,1.0,14.0,31,0.00,,,0.00,,VWS V14.01,2013-05-03 15:19:00,
2013-05-03 11:24:00,61.1,31.8,30.41,ENE,65,5.0,14.0,33,0.00,,,0.00,,VWS V14.01,2013-05-03 15:24:00,
2013-05-03 11:29:00,60.1,30.2,30.41,NNE,27,7.0,15.0,32,0.00,,,0.00,,VWS V14.01,2013-05-03 15:29:00,
2013-05-03 11:30:00,60.1,30.2,30.41,ENE,61,13.0,15.0,32,0.00,,,0.00,889.00,VWS V14.01,2013-05-03 15:30:00,
2013-05-03 11:34:00,60.4,33.3,30.41,ENE,57,14.0,15.0,36,0.00,,,0.00,,VWS V14.01,2013-05-03 15:34:00,
2013-05-03 11:39:00,60.0,30.8,30.41,NE,50,6.0,18.0,33,0.00,,,0.00,,VWS V14.01,2013-05-03 15:39:00,
2013-05-03 11:44:00,60.8,31.5,30.41,East,80,0.0,18.0,33,0.00,,,0.00,,VWS V14.01,2013-05-03 15:44:00,
2013-05-03 11:45:00,60.9,31.6,30.41,East,80,0.0,18.0,33,0.00,,,0.00,918.00,VWS V14.01,2013-05-03 15:45:00,
2013-05-03 11:49:00,61.5,32.2,30.41,NE,52,8.0,15.0,33,0.00,,,0.00,,VWS V14.01,2013-05-03 15:49:00,
2013-05-03 11:54:00,61.7,30.8,30.41,NE,43,10.0,15.0,31,0.00,,,0.00,,VWS V14.01,2013-05-03 15:54:00,
2013-05-03 11:59:00,62.5,30.7,30.40,ENE,69,4.0,15.0,30,0.00,,,0.00,,VWS V14.01,2013-05-03 15:59:00,
2013-05-03 12:00:00,62.3,30.5,30.40,NNE,32,6.0,15.0,30,0.00,,,0.00,939.00,VWS V14.01,2013-05-03 16:00:00,
2013-05-03 12:04:00,62.8,30.1,30.40,SSW,193,8.0,10.0,29,0.00,,,0.00,,VWS V14.01,2013-05-03 16:04:00,
2013-05-03 12:09:00,62.3,30.5,30.40,NE,45,6.0,11.0,30,0.00,,,0.00,,VWS V14.01,2013-05-03 16:09:00,
2013-05-03 12:14:00,62.2,29.6,30.39,NE,55,9.0,14.0,29,0.00,,,0.00,,VWS V14.01,2013-05-03 16:14:00,
2013-05-03 12:15:00,62.0,29.4,30.39,NNE,32,7.0,14.0,29,0.00,,,0.00,953.00,VWS V14.01,2013-05-03 16:15:00,
2013-05-03 12:19:00,62.6,31.6,30.39,West,273,0.0,10.0,31,0.00,,,0.00,,VWS V14.01,2013-05-03 16:19:00,
2013-05-03 12:24:00,63.1,30.4,30.39,NE,41,10.0,12.0,29,0.00,,,0.00,,VWS V14.01,2013-05-03 16:24:00,
2013-05-03 12:29:00,63.6,29.9,30.39,South,177,0.0,12.0,28,0.00,,,0.00,,VWS V14.01,2013-05-03 16:29:00,
2013-05-03 12:30:00,63.6,29.9,30.39,South,177,0.0,12.0,28,0.00,,,0.00,962.00,VWS V14.01,2013-05-03 16:30:00,
2013-05-03 12:34:00,63.6,29.0,30.39,WSW,257,6.0,10.0,27,0.00,,,0.00,,VWS V14.01,2013-05-03 16:34:00,
2013-05-03 12:39:00,64.1,33.7,30.39,NE,46,2.0,10.0,32,0.00,,,0.00,,VWS V14.01,2013-05-03 16:39:00,
2013-05-03 12:44:00,64.1,28.5,30.39,ESE,119,4.0,12.0,26,0.00,,,0.00,,VWS V14.01,2013-05-03 16:44:00,
2013-05-03 12:45:00,64.2,28.6,30.39,ESE,103,3.0,12.0,26,0.00,,,0.00,983.00,VWS V14.01,2013-05-03 16:45:00,
2013-05-03 12:49:00,63.8,33.4,30.39,East,81,7.0,9.0,32,0.00,,,0.00,,VWS V14.01,2013-05-03 16:49:00,
2013-05-03 12:54:00,62.3,29.7,30.39,NE,48,6.0,11.0,29,0.00,,,0.00,,VWS V14.01,2013-05-03 16:54:00,
2013-05-03 12:59:00,63.8,35.7,30.38,NE,54,7.0,11.0,35,0.00,,,0.00,,VWS V14.01,2013-05-03 16:59:00,
2013-05-03 13:00:00,64.1,35.9,30.38,ENE,67,6.0,11.0,35,0.00,,,0.00,963.00,VWS V14.01,2013-05-03 17:00:00,
2013-05-03 13:04:00,64.1,35.9,30.38,NE,51,8.0,11.0,35,0.00,,,0.00,,VWS V14.01,2013-05-03 17:04:00,
2013-05-03 13:09:00,63.4,31.5,30.38,South,184,0.0,11.0,30,0.00,,,0.00,,VWS V14.01,2013-05-03 17:09:00,
2013-05-03 13:14:00,64.1,32.1,30.39,SE,145,2.0,11.0,30,0.00,,,0.00,,VWS V14.01,2013-05-03 17:14:00,
2013-05-03 13:15:00,63.9,31.9,30.39,SSW,205,6.0,11.0,30,0.00,,,0.00,967.00,VWS V14.01,2013-05-03 17:15:00,
2013-05-03 13:19:00,63.8,34.9,30.39,NE,54,2.0,7.0,34,0.00,,,0.00,,VWS V14.01,2013-05-03 17:19:00,
2013-05-03 13:24:00,63.0,31.9,30.39,WNW,290,0.0,10.0,31,0.00,,,0.00,,VWS V14.01,2013-05-03 17:24:00,
2013-05-03 13:29:00,63.9,33.5,30.38,ENE,57,0.0,12.0,32,0.00,,,0.00,,VWS V14.01,2013-05-03 17:29:00,
2013-05-03 13:30:00,64.6,33.3,30.38,SE,140,5.0,12.0,31,0.00,,,0.00,958.00,VWS V14.01,2013-05-03 17:30:00,
2013-05-03 13:34:00,64.4,31.5,30.38,NE,53,4.0,12.0,29,0.00,,,0.00,,VWS V14.01,2013-05-03 17:34:00,
2013-05-03 13:39:00,63.3,33.0,30.38,NE,48,6.0,16.0,32,0.00,,,0.00,,VWS V14.01,2013-05-03 17:39:00,
2013-05-03 13:44:00,62.6,33.1,30.38,NNE,33,4.0,16.0,33,0.00,,,0.00,,VWS V14.01,2013-05-03 17:44:00,
2013-05-03 13:45:00,62.8,33.3,30.38,NNE,33,5.0,16.0,33,0.00,,,0.00,954.00,VWS V14.01,2013-05-03 17:45:00,
2013-05-03 13:49:00,64.4,33.9,30.38,SE,125,0.0,9.0,32,0.00,,,0.00,,VWS V14.01,2013-05-03 17:49:00,
2013-05-03 13:54:00,64.9,30.1,30.38,NE,40,6.0,11.0,27,0.00,,,0.00,,VWS V14.01,2013-05-03 17:54:00,
2013-05-03 13:59:00,64.7,30.9,30.38,ENE,76,0.0,12.0,28,0.00,,,0.00,,VWS V14.01,2013-05-03 17:59:00,
2013-05-03 14:00:00,64.7,30.0,30.38,ENE,76,0.0,12.0,27,0.00,,,0.00,951.00,VWS V14.01,2013-05-03 18:00:00,
2013-05-03 14:04:00,64.1,30.4,30.38,East,82,5.0,11.0,28,0.00,,,0.00,,VWS V14.01,2013-05-03 18:04:00,
2013-05-03 14:08:00,64.2,29.5,30.38,WSW,240,3.0,11.0,27,0.00,,,0.00,,VWS V14.01,2013-05-03 18:08:00,
2013-05-03 14:13:00,63.8,30.1,30.37,NE,53,5.0,11.0,28,0.00,,,0.00,,VWS V14.01,2013-05-03 18:13:00,
2013-05-03 14:15:00,63.8,29.2,30.37,SE,126,0.0,11.0,27,0.00,,,0.00,933.00,VWS V14.01,2013-05-03 18:15:00,
2013-05-03 14:18:00,63.6,29.0,30.37,SE,136,9.0,18.0,27,0.00,,,0.00,,VWS V14.01,2013-05-03 18:18:00,
2013-05-03 14:23:00,63.9,29.3,30.37,NE,44,7.0,18.0,27,0.00,,,0.00,,VWS V14.01,2013-05-03 18:23:00,
2013-05-03 14:28:00,64.6,27.0,30.37,East,101,5.0,18.0,24,0.00,,,0.00,,VWS V14.01,2013-05-03 18:28:00,
2013-05-03 14:30:00,64.6,27.0,30.37,East,98,0.0,18.0,24,0.00,,,0.00,918.00,VWS V14.01,2013-05-03 18:30:00,
2013-05-03 14:33:00,65.4,29.6,30.37,East,101,8.0,14.0,26,0.00,,,0.00,,VWS V14.01,2013-05-03 18:33:00,
2013-05-03 14:38:00,64.9,24.1,30.37,North,5,3.0,14.0,21,0.00,,,0.00,,VWS V14.01,2013-05-03 18:38:00,
2013-05-03 14:43:00,63.8,25.3,30.36,NE,42,3.0,14.0,23,0.00,,,0.00,,VWS V14.01,2013-05-03 18:43:00,
2013-05-03 14:45:00,64.2,26.7,30.36,NE,39,0.0,14.0,24,0.00,,,0.00,896.00,VWS V14.01,2013-05-03 18:45:00,
2013-05-03 14:48:00,65.7,26.9,30.36,WSW,242,9.0,10.0,23,0.00,,,0.00,,VWS V14.01,2013-05-03 18:48:00,
2013-05-03 14:53:00,65.1,26.4,30.36,NNE,31,10.0,14.0,23,0.00,,,0.00,,VWS V14.01,2013-05-03 18:53:00,
2013-05-03 14:58:00,65.4,27.7,30.36,SE,126,0.0,14.0,24,0.00,,,0.00,,VWS V14.01,2013-05-03 18:58:00,
2013-05-03 15:00:00,65.9,27.1,30.36,NE,53,5.0,14.0,23,0.00,,,0.00,867.00,VWS V14.01,2013-05-03 19:00:00,
2013-05-03 15:03:00,66.3,24.1,30.36,SSE,153,6.0,8.0,20,0.00,,,0.00,,VWS V14.01,2013-05-03 19:03:00,
2013-05-03 15:08:00,66.3,24.1,30.36,SSW,204,5.0,9.0,20,0.00,,,0.00,,VWS V14.01,2013-05-03 19:08:00,
2013-05-03 15:13:00,65.9,26.0,30.35,NE,53,13.0,13.0,22,0.00,,,0.00,,VWS V14.01,2013-05-03 19:13:00,
2013-05-03 15:15:00,65.5,28.8,30.35,NE,38,7.0,13.0,25,0.00,,,0.00,838.00,VWS V14.01,2013-05-03 19:15:00,
2013-05-03 15:18:00,64.9,24.1,30.35,East,90,4.0,15.0,21,0.00,,,0.00,,VWS V14.01,2013-05-03 19:18:00,
2013-05-03 15:23:00,64.6,24.9,30.35,East,79,1.0,15.0,22,0.00,,,0.00,,VWS V14.01,2013-05-03 19:23:00,
2013-05-03 15:28:00,65.9,29.1,30.35,East,89,9.0,15.0,25,0.00,,,0.00,,VWS V14.01,2013-05-03 19:28:00,
2013-05-03 15:30:00,66.0,26.1,30.35,NE,36,6.0,15.0,22,0.00,,,0.00,805.00,VWS V14.01,2013-05-03 19:30:00,
2013-05-03 15:33:00,66.5,25.4,30.35,SSE,159,0.0,9.0,21,0.00,,,0.00,,VWS V14.01,2013-05-03 19:33:00,
2013-05-03 15:38:00,65.7,25.8,30.35,SE,130,6.0,15.0,22,0.00,,,0.00,,VWS V14.01,2013-05-03 19:38:00,
2013-05-03 15:43:00,66.3,26.4,30.35,NE,52,7.0,15.0,22,0.00,,,0.00,,VWS V14.01,2013-05-03 19:43:00,
2013-05-03 15:45:00,66.2,28.4,30.35,ENE,61,8.0,15.0,24,0.00,,,0.00,775.00,VWS V14.01,2013-05-03 19:45:00,
2013-05-03 15:48:00,66.3,24.1,30.35,SSW,207,0.0,11.0,20,0.00,,,0.00,,VWS V14.01,2013-05-03 19:48:00,
2013-05-03 15:53:00,67.5,26.2,30.35,SSW,202,10.0,11.0,21,0.00,,,0.00,,VWS V14.01,2013-05-03 19:53:00,
2013-05-03 15:58:00,67.7,26.4,30.35,ESE,114,4.0,16.0,21,0.00,,,0.00,,VWS V14.01,2013-05-03 19:58:00,
2013-05-03 16:00:00,67.3,24.9,30.35,NE,51,5.0,16.0,20,0.00,,,0.00,735.00,VWS V14.01,2013-05-03 20:00:00,
2013-05-03 16:03:00,66.7,26.7,30.35,ESE,111,5.0,8.0,22,0.00,,,0.00,,VWS V14.01,2013-05-03 20:03:00,
2013-05-03 16:08:00,67.2,24.8,30.35,SSW,213,1.0,14.0,20,0.00,,,0.00,,VWS V14.01,2013-05-03 20:08:00,
2013-05-03 16:13:00,67.0,25.8,30.34,South,181,5.0,14.0,21,0.00,,,0.00,,VWS V14.01,2013-05-03 20:13:00,
2013-05-03 16:15:00,67.0,24.6,30.34,ENE,78,7.0,14.0,20,0.00,,,0.00,693.00,VWS V14.01,2013-05-03 20:15:00,
2013-05-03 16:18:00,67.0,24.6,30.34,NE,42,7.0,13.0,20,0.00,,,0.00,,VWS V14.01,2013-05-03 20:18:00,
2013-05-03 16:23:00,66.3,24.1,30.34,SE,145,5.0,13.0,20,0.00,,,0.00,,VWS V14.01,2013-05-03 20:23:00,
2013-05-03 16:28:00,66.3,24.1,30.34,SW,217,0.0,15.0,20,0.00,,,0.00,,VWS V14.01,2013-05-03 20:28:00,
2013-05-03 16:30:00,66.5,24.2,30.34,NE,44,12.0,15.0,20,0.00,,,0.00,654.00,VWS V14.01,2013-05-03 20:30:00,
2013-05-03 16:33:00,66.5,24.2,30.34,NE,48,6.0,12.0,20,0.00,,,0.00,,VWS V14.01,2013-05-03 20:33:00,
2013-05-03 16:38:00,66.5,25.4,30.34,NE,44,7.0,14.0,21,0.00,,,0.00,,VWS V14.01,2013-05-03 20:38:00,
2013-05-03 16:43:00,66.7,27.8,30.34,NE,37,4.0,14.0,23,0.00,,,0.00,,VWS V14.01,2013-05-03 20:43:00,
2013-05-03 16:45:00,66.8,27.8,30.33,NE,44,0.0,14.0,23,0.00,,,0.00,603.00,VWS V14.01,2013-05-03 20:45:00,
2013-05-03 16:48:00,67.8,26.5,30.33,ESE,117,12.0,12.0,21,0.00,,,0.00,,VWS V14.01,2013-05-03 20:48:00,
2013-05-03 16:53:00,67.2,27.1,30.33,East,98,3.0,14.0,22,0.00,,,0.00,,VWS V14.01,2013-05-03 20:53:00,
2013-05-03 16:58:00,67.2,27.1,30.33,NE,38,10.0,14.0,22,0.00,,,0.00,,VWS V14.01,2013-05-03 20:58:00,
2013-05-03 17:00:00,67.0,25.8,30.33,ENE,71,9.0,14.0,21,0.00,,,0.00,561.00,VWS V14.01,2013-05-03 21:00:00,
2013-05-03 17:03:00,66.5,26.5,30.33,SW,217,1.0,10.0,22,0.00,,,0.00,,VWS V14.01,2013-05-03 21:03:00,
2013-05-03 17:08:00,67.0,24.6,30.33,SSW,193,7.0,12.0,20,0.00,,,0.00,,VWS V14.01,2013-05-03 21:08:00,
2013-05-03 17:13:00,67.3,26.1,30.33,SSW,212,4.0,12.0,21,0.00,,,0.00,,VWS V14.01,2013-05-03 21:13:00,
2013-05-03 17:15:00,67.2,26.0,30.34,West,261,7.0,12.0,21,0.00,,,0.00,512.00,VWS V14.01,2013-05-03 21:15:00,
2013-05-03 17:18:00,66.7,26.7,30.34,East,91,1.0,8.0,22,0.00,,,0.00,,VWS V14.01,2013-05-03 21:18:00,
2013-05-03 17:23:00,66.3,25.2,30.34,WSW,238,7.0,10.0,21,0.00,,,0.00,,VWS V14.01,2013-05-03 21:23:00,
2013-05-03 17:28:00,66.2,24.0,30.34,WSW,258,4.0,10.0,20,0.00,,,0.00,,VWS V14.01,2013-05-03 21:28:00,
2013-05-03 17:30:00,66.2,26.3,30.33,SSW,196,6.0,10.0,22,0.00,,,0.00,461.00,VWS V14.01,2013-05-03 21:30:00,
2013-05-03 17:33:00,66.2,25.1,30.33,East,97,6.0,12.0,21,0.00,,,0.00,,VWS V14.01,2013-05-03 21:33:00,
2013-05-03 17:38:00,66.5,27.6,30.33,ENE,63,0.0,12.0,23,0.00,,,0.00,,VWS V14.01,2013-05-03 21:38:00,
2013-05-03 17:43:00,67.0,25.8,30.33,ENE,59,0.0,12.0,21,0.00,,,0.00,,VWS V14.01,2013-05-03 21:43:00,
2013-05-03 17:45:00,67.0,25.8,30.33,SSW,194,0.0,12.0,21,0.00,,,0.00,411.00,VWS V14.01,2013-05-03 21:45:00,
2013-05-03 17:48:00,67.0,25.8,30.33,WSW,240,0.0,11.0,21,0.00,,,0.00,,VWS V14.01,2013-05-03 21:48:00,
2013-05-03 17:53:00,67.3,26.1,30.33,ESE,105,0.0,11.0,21,0.00,,,0.00,,VWS V14.01,2013-05-03 21:53:00,
2013-05-03 17:58:00,66.7,26.7,30.33,East,88,5.0,11.0,22,0.00,,,0.00,,VWS V14.01,2013-05-03 21:58:00,
2013-05-03 18:00:00,66.7,25.6,30.33,East,88,0.0,11.0,21,0.00,,,0.00,360.00,VWS V14.01,2013-05-03 22:00:00,
2013-05-03 18:03:00,67.2,28.2,30.33,East,99,0.0,2.0,23,0.00,,,0.00,,VWS V14.01,2013-05-03 22:03:00,
2013-05-03 18:08:00,67.7,27.5,30.33,SSE,157,0.0,5.0,22,0.00,,,0.00,,VWS V14.01,2013-05-03 22:08:00,
2013-05-03 18:13:00,67.7,26.4,30.33,SE,142,0.0,5.0,21,0.00,,,0.00,,VWS V14.01,2013-05-03 22:13:00,
2013-05-03 18:15:00,67.5,27.4,30.33,South,180,4.0,7.0,22,0.00,,,0.00,311.00,VWS V14.01,2013-05-03 22:15:00,
2013-05-03 18:18:00,67.0,28.0,30.33,East,86,6.0,11.0,23,0.00,,,0.00,,VWS V14.01,2013-05-03 22:18:00,
2013-05-03 18:23:00,66.2,27.3,30.33,SE,137,5.0,12.0,23,0.00,,,0.00,,VWS V14.01,2013-05-03 22:23:00,
2013-05-03 18:28:00,66.2,27.3,30.33,SSW,213,0.0,12.0,23,0.00,,,0.00,,VWS V14.01,2013-05-03 22:28:00,
2013-05-03 18:30:00,66.2,27.3,30.33,ESE,105,0.0,12.0,23,0.00,,,0.00,258.00,VWS V14.01,2013-05-03 22:30:00,
2013-05-03 18:33:00,66.2,27.3,30.33,SE,129,0.0,5.0,23,0.00,,,0.00,,VWS V14.01,2013-05-03 22:33:00,
2013-05-03 18:38:00,66.3,27.4,30.33,East,79,0.0,5.0,23,0.00,,,0.00,,VWS V14.01,2013-05-03 22:38:00,
2013-05-03 18:43:00,66.0,28.2,30.33,ESE,120,6.0,13.0,24,0.00,,,0.00,,VWS V14.01,2013-05-03 22:43:00,
2013-05-03 18:45:00,66.0,28.2,30.33,SE,135,0.0,13.0,24,0.00,,,0.00,186.00,VWS V14.01,2013-05-03 22:45:00,
2013-05-03 18:48:00,66.0,28.2,30.33,SSW,199,0.0,0.0,24,0.00,,,0.00,,VWS V14.01,2013-05-03 22:48:00,
2013-05-03 18:53:00,65.5,28.8,30.33,ESE,115,5.0,8.0,25,0.00,,,0.00,,VWS V14.01,2013-05-03 22:53:00,
2013-05-03 18:58:00,64.9,28.3,30.33,East,92,0.0,8.0,25,0.00,,,0.00,,VWS V14.01,2013-05-03 22:58:00,
2013-05-03 19:00:00,64.9,29.2,30.33,NE,50,5.0,8.0,26,0.00,,,0.00,118.00,VWS V14.01,2013-05-03 23:00:00,
2013-05-03 19:03:00,64.6,29.0,30.33,South,190,0.0,5.0,26,0.00,,,0.00,,VWS V14.01,2013-05-03 23:03:00,
2013-05-03 19:08:00,63.9,28.4,30.33,NE,46,4.0,7.0,26,0.00,,,0.00,,VWS V14.01,2013-05-03 23:08:00,
2013-05-03 19:13:00,63.3,27.9,30.33,East,92,0.0,7.0,26,0.00,,,0.00,,VWS V14.01,2013-05-03 23:13:00,
2013-05-03 19:15:00,63.3,27.9,30.34,East,92,0.0,7.0,26,0.00,,,0.00,74.00,VWS V14.01,2013-05-03 23:15:00,
2013-05-03 19:18:00,63.0,27.6,30.34,WSW,242,0.0,9.0,26,0.00,,,0.00,,VWS V14.01,2013-05-03 23:18:00,
2013-05-03 19:23:00,62.6,27.3,30.34,NE,40,2.0,9.0,26,0.00,,,0.00,,VWS V14.01,2013-05-03 23:23:00,
2013-05-03 19:28:00,62.3,27.0,30.34,ESE,113,0.0,9.0,26,0.00,,,0.00,,VWS V14.01,2013-05-03 23:28:00,
2013-05-03 19:30:00,62.2,26.9,30.34,ESE,113,0.0,9.0,26,0.00,,,0.00,19.00,VWS V14.01,2013-05-03 23:30:00,
2013-05-03 19:33:00,62.0,27.7,30.34,East,97,0.0,4.0,27,0.00,,,0.00,,VWS V14.01,2013-05-03 23:33:00,
2013-05-03 19:38:00,61.7,30.0,30.34,South,178,0.0,5.0,30,0.00,,,0.00,,VWS V14.01,2013-05-03 23:38:00,
2013-05-03 19:43:00,61.2,30.4,30.34,East,95,0.0,6.0,31,0.00,,,0.00,,VWS V14.01,2013-05-03 23:43:00,
2013-05-03 19:45:00,61.2,30.4,30.35,East,95,0.0,6.0,31,0.00,,,0.00,12.00,VWS V14.01,2013-05-03 23:45:00,
2013-05-03 19:48:00,60.9,31.6,30.35,East,95,0.0,0.0,33,0.00,,,0.00,,VWS V14.01,2013-05-03 23:48:00,
2013-05-03 19:53:00,60.6,31.4,30.35,East,95,0.0,1.0,33,0.00,,,0.00,,VWS V14.01,2013-05-03 23:53:00,
2013-05-03 19:58:00,60.4,31.2,30.35,East,101,0.0,1.0,33,0.00,,,0.00,,VWS V14.01,2013-05-03 23:58:00,
2013-05-03 20:00:00,60.3,31.1,30.35,East,101,0.0,1.0,33,0.00,,,0.00,0.00,VWS V14.01,2013-05-04 00:00:00,
2013-05-03 20:03:00,60.1,31.7,30.35,East,101,0.0,0.0,34,0.00,,,0.00,,VWS V14.01,2013-05-04 00:03:00,
2013-05-03 20:08:00,59.8,32.1,30.35,SW,233,0.0,6.0,35,0.00,,,0.00,,VWS V14.01,2013-05-04 00:08:00,
2013-05-03 20:13:00,59.4,32.5,30.35,SW,235,0.0,6.0,36,0.00,,,0.00,,VWS V14.01,2013-05-04 00:13:00,
2013-05-03 20:15:00,59.4,33.1,30.35,SW,235,0.0,6.0,37,0.00,,,0.00,0.00,VWS V14.01,2013-05-04 00:15:00,
2013-05-03 20:18:00,59.2,33.0,30.35,SW,235,0.0,0.0,37,0.00,,,0.00,,VWS V14.01,2013-05-04 00:18:00,
2013-05-03 20:23:00,58.9,34.0,30.35,SW,235,0.0,0.0,39,0.00,,,0.00,,VWS V14.01,2013-05-04 00:23:00,
2013-05-03 20:28:00,58.6,34.4,30.35,WNW,291,0.0,1.0,40,0.00,,,0.00,,VWS V14.01,2013-05-04 00:28:00,
2013-05-03 20:30:00,58.6,34.4,30.35,WNW,291,0.0,1.0,40,0.00,,,0.00,0.00,VWS V14.01,2013-05-04 00:30:00,
2013-05-03 20:33:00,58.3,34.1,30.35,WSW,252,0.0,0.0,40,0.00,,,0.00,,VWS V14.01,2013-05-04 00:33:00,
2013-05-03 20:38:00,57.9,35.0,30.35,WSW,253,0.0,0.0,42,0.00,,,0.00,,VWS V14.01,2013-05-04 00:38:00,
2013-05-03 20:43:00,57.5,35.2,30.35,WNW,291,1.0,1.0,43,0.00,,,0.00,,VWS V14.01,2013-05-04 00:43:00,
2013-05-03 20:45:00,57.4,35.1,30.35,NNW,345,2.0,6.0,43,0.00,,,0.00,0.00,VWS V14.01,2013-05-04 00:45:00,
2013-05-03 20:48:00,57.1,36.0,30.35,NNW,344,0.0,2.0,45,0.00,,,0.00,,VWS V14.01,2013-05-04 00:48:00,
2013-05-03 20:53:00,56.8,36.3,30.35,ENE,69,0.0,7.0,46,0.00,,,0.00,,VWS V14.01,2013-05-04 00:53:00,
2013-05-03 20:58:00,56.6,37.2,30.35,ENE,69,0.0,7.0,48,0.00,,,0.00,,VWS V14.01,2013-05-04 00:58:00,
2013-05-03 21:00:00,56.5,36.5,30.35,ENE,69,0.0,7.0,47,0.00,,,0.00,0.00,VWS V14.01,2013-05-04 01:00:00,
2013-05-03 21:03:00,56.4,36.4,30.35,ENE,69,0.0,0.0,47,0.00,,,0.00,,VWS V14.01,2013-05-04 01:03:00,
2013-05-03 21:08:00,56.2,36.3,30.35,ENE,69,0.0,0.0,47,0.00,,,0.00,,VWS V14.01,2013-05-04 01:08:00,
2013-05-03 21:12:00,55.9,36.5,30.35,ENE,69,0.0,0.0,48,0.00,,,0.00,,VWS V14.01,2013-05-04 01:12:00,
2013-05-03 21:15:00,55.8,36.4,30.36,ENE,69,0.0,0.0,48,0.00,,,0.00,0.00,VWS V14.01,2013-05-04 01:15:00,
2013-05-03 21:17:00,55.5,36.7,30.36,ENE,69,0.0,0.0,49,0.00,,,0.00,,VWS V14.01,2013-05-04 01:17:00,
2013-05-03 21:22:00,55.0,36.2,30.36,ENE,69,0.0,0.0,49,0.00,,,0.00,,VWS V14.01,2013-05-04 01:22:00,
2013-05-03 21:27:00,54.7,36.9,30.36,ENE,69,0.0,2.0,51,0.00,,,0.00,,VWS V14.01,2013-05-04 01:27:00,
2013-05-03 21:30:00,54.6,37.3,30.36,ENE,69,0.0,2.0,52,0.00,,,0.00,0.00,VWS V14.01,2013-05-04 01:30:00,
2013-05-03 21:32:00,54.3,37.5,30.36,ENE,69,0.0,1.0,53,0.00,,,0.00,,VWS V14.01,2013-05-04 01:32:00,
2013-05-03 21:37:00,54.0,38.2,30.36,ENE,69,0.0,1.0,55,0.00,,,0.00,,VWS V14.01,2013-05-04 01:37:00,
2013-05-03 21:42:00,53.7,38.4,30.36,WNW,292,0.0,6.0,56,0.00,,,0.00,,VWS V14.01,2013-05-04 01:42:00,
2013-05-03 21:45:00,53.5,38.2,30.36,WSW,254,0.0,6.0,56,0.00,,,0.00,0.00,VWS V14.01,2013-05-04 01:45:00,
2013-05-03 21:47:00,53.2,38.4,30.36,West,271,0.0,6.0,57,0.00,,,0.00,,VWS V14.01,2013-05-04 01:47:00,
2013-05-03 21:52:00,53.0,38.6,30.36,SSW,205,0.0,8.0,58,0.00,,,0.00,,VWS V14.01,2013-05-04 01:52:00,
2013-05-03 21:57:00,52.5,39.0,30.36,SSW,210,7.0,11.0,60,0.00,,,0.00,,VWS V14.01,2013-05-04 01:57:00,
2013-05-03 22:00:00,52.4,38.9,30.36,South,188,9.0,11.0,60,0.00,,,0.00,0.00,VWS V14.01,2013-05-04 02:00:00,
2013-05-03 22:02:00,52.2,39.2,30.36,ESE,102,0.0,9.0,61,0.00,,,0.00,,VWS V14.01,2013-05-04 02:02:00,
2013-05-03 22:07:00,51.9,39.3,30.36,NE,41,5.0,9.0,62,0.00,,,0.00,,VWS V14.01,2013-05-04 02:07:00,
2013-05-03 22:12:00,51.8,39.6,30.36,NW,313,6.0,9.0,63,0.00,,,0.00,,VWS V14.01,2013-05-04 02:12:00,
2013-05-03 22:15:00,51.6,39.4,30.36,North,351,0.0,9.0,63,0.00,,,0.00,0.00,VWS V14.01,2013-05-04 02:15:00,
2013-05-03 22:17:00,51.5,39.7,30.36,North,5,2.0,5.0,64,0.00,,,0.00,,VWS V14.01,2013-05-04 02:17:00,
2013-05-03 22:22:00,51.3,40.0,30.36,North,5,0.0,5.0,65,0.00,,,0.00,,VWS V14.01,2013-05-04 02:22:00,
2013-05-03 22:27:00,51.2,39.8,30.36,North,5,0.0,5.0,65,0.00,,,0.00,,VWS V14.01,2013-05-04 02:27:00,
2013-05-03 22:30:00,51.2,39.8,30.37,North,5,0.0,5.0,65,0.00,,,0.00,0.00,VWS V14.01,2013-05-04 02:30:00,
2013-05-03 22:32:00,51.0,39.7,30.37,North,5,0.0,0.0,65,0.00,,,0.00,,VWS V14.01,2013-05-04 02:32:00,
2013-05-03 22:37:00,50.9,40.0,30.37,North,5,0.0,0.0,66,0.00,,,0.00,,VWS V14.01,2013-05-04 02:37:00,
2013-05-03 22:42:00,50.6,39.7,30.37,North,5,0.0,0.0,66,0.00,,,0.00,,VWS V14.01,2013-05-04 02:42:00,
2013-05-03 22:45:00,50.6,39.7,30.36,North,5,0.0,0.0,66,0.00,,,0.00,0.00,VWS V14.01,2013-05-04 02:45:00,
2013-05-03 22:47:00,50.4,39.5,30.36,North,5,0.0,0.0,66,0.00,,,0.00,,VWS V14.01,2013-05-04 02:47:00,
2013-05-03 22:52:00,50.1,40.0,30.36,North,5,0.0,0.0,68,0.00,,,0.00,,VWS V14.01,2013-05-04 02:52:00,
2013-05-03 22:57:00,50.0,40.2,30.36,North,5,0.0,0.0,69,0.00,,,0.00,,VWS V14.01,2013-05-04 02:57:00,
2013-05-03 23:00:00,49.8,40.0,30.37,North,5,0.0,0.0,69,0.00,,,0.00,0.00,VWS V14.01,2013-05-04 03:00:00,
2013-05-03 23:02:00,49.7,40.0,30.37,North,5,0.0,0.0,69,0.00,,,0.00,,VWS V14.01,2013-05-04 03:02:00,
2013-05-03 23:07:00,49.4,40.0,30.37,North,5,0.0,0.0,70,0.00,,,0.00,,VWS V14.01,2013-05-04 03:07:00,
2013-05-03 23:12:00,49.3,39.9,30.37,North,5,0.0,0.0,70,0.00,,,0.00,,VWS V14.01,2013-05-04 03:12:00,
2013-05-03 23:15:00,49.1,39.8,30.37,North,5,0.0,0.0,70,0.00,,,0.00,0.00,VWS V14.01,2013-05-04 03:15:00,
2013-05-03 23:17:00,49.0,39.7,30.37,North,5,0.0,0.0,70,0.00,,,0.00,,VWS V14.01,2013-05-04 03:17:00,
2013-05-03 23:22:00,48.8,39.5,30.37,North,5,0.0,0.0,70,0.00,,,0.00,,VWS V14.01,2013-05-04 03:22:00,
2013-05-03 23:27:00,48.7,39.4,30.37,North,5,0.0,0.0,70,0.00,,,0.00,,VWS V14.01,2013-05-04 03:27:00,
2013-05-03 23:30:00,48.7,39.4,30.37,North,5,0.0,0.0,70,0.00,,,0.00,0.00,VWS V14.01,2013-05-04 03:30:00,
2013-05-03 23:32:00,48.5,39.9,30.37,North,5,0.0,0.0,72,0.00,,,0.00,,VWS V14.01,2013-05-04 03:32:00,
2013-05-03 23:37:00,48.4,40.2,30.37,North,5,0.0,0.0,73,0.00,,,0.00,,VWS V14.01,2013-05-04 03:37:00,
2013-05-03 23:42:00,48.1,39.9,30.37,North,5,0.0,0.0,73,0.00,,,0.00,,VWS V14.01,2013-05-04 03:42:00,
2013-05-03 23:45:00,47.9,39.7,30.37,North,5,0.0,0.0,73,0.00,,,0.00,0.00,VWS V14.01,2013-05-04 03:45:00,
2013-05-03 23:47:00,47.8,39.9,30.37,North,5,0.0,0.0,74,0.00,,,0.00,,VWS V14.01,2013-05-04 03:47:00,
2013-05-03 23:52:00,47.5,40.0,30.37,North,5,0.0,0.0,75,0.00,,,0.00,,VWS V14.01,2013-05-04 03:52:00,
2013-05-03 23:57:00,47.2,40.0,30.37,North,5,0.0,0.0,76,0.00,,,0.00,,VWS V14.01,2013-05-04 03:57:00,